Roulette, Pennsylvania
Current Conditions -  °F | °C
As of 12:56 AM on Sunday 23 Nov 2014 (Local Time) from KELZ Reporting Station
Overcast Overcast  
Wind Chill: 37°   Ceiling: 3400
Heat Index: 42°   Visibility: 10mi
Dew Point: 35°   Wind: 9mph
Humidity: 76%   Direction: 230°SW
Pressure: 30.05"   Gusts: 16mph
Location:  41.78°N, 78.15°W
Report Text: KELZ 230556Z AUTO 23008G14KT 10SM OVC034 06/02 A3005 RMK AO2 SLP193 60002 T00560017 10056 20039 53003
Loading
Personal Weather Stations






























Interactive Weather Map New forecast layout! Learn more

10-Day Weather Forecast

Advertisements
Track Severe Weather on mobile